• Join FlightAware (Why Join?)
  • Login
  • US Flag 
05:57AM EDT


 

Airport Tracker/Info


-or-


 

Live Flight TrackerFlight Track Log ✈ SWA3408 ✈ 23-Apr-2013 ✈ KMDW - KIAD

Flight Track Log - Related Links

Times and Time Zones

All times are in EDT time to prevent confusion due to time zone crossing. See the SWA3408 flight status page for this flight to view local times or setup timezone preferences in your user account.

Time Position Orientation Groundspeed Altitude Reporting Facility
EDT Latitude Longitude Course Direction KTS MPH feet Rate Location/Type
07:36AM 41.7667 -87.7667 90° East 135 155 2,200  Level Chicago TRACON
07:37AM 41.7667 -87.7000 90° East 214 246 3,400 1,380 Climbing Chicago TRACON
07:38AM 41.7667 -87.6000 90° East 294 338 5,000 1,020 Climbing Chicago TRACON
07:39AM 41.7775 -87.4989 82° East 291 335 5,400 1,680 Climbing Chicago Center
07:40AM 41.7817 -87.3881 87° East 297 342 8,400 3,960 Climbing Chicago Center
07:41AM 41.7742 -87.2711 95° East 312 359 13,600 3,180 Climbing Chicago Center
07:42AM 41.7661 -87.1503 95° East 323 372 15,000 780 Climbing Chicago Center
07:43AM 41.7606 -87.0211 93° East 343 395 15,200 1,980 Climbing Chicago Center
07:44AM 41.7639 -86.8583 88° East 364 419 19,100 3,660 Climbing Chicago Center
07:45AM 41.7661 -86.7153 89° East 382 440 22,800 2,940 Climbing Chicago Center
07:46AM 41.7669 -86.5803 89° East 405 466 25,200 2,220 Climbing Chicago Center
07:47AM 41.7681 -86.4136 89° East 444 511 27,400 2,220 Climbing Chicago Center
07:48AM 41.7614 -86.1967 92° East 487 560 29,800 2,220 Climbing Chicago Center
07:49AM 41.7486 -86.0022 95° East 518 596 32,000 2,220 Climbing Chicago Center
07:50AM 41.7364 -85.8036 95° East 534 615 34,400 1,440 Climbing Chicago Center
07:51AM 41.7236 -85.6053 95° East 532 612 35,000 1,260 Climbing Chicago Center
07:52AM 41.7100 -85.4336 96° East 510 587 37,100 2,280 Climbing Chicago Center
07:53AM 41.6975 -85.2161 94° East 511 588 39,700 1,860 Climbing Chicago Center
07:55AM 41.6847 -85.0322 95° East 503 579 41,000 600 Climbing Chicago Center
07:56AM 41.6711 -84.8539 96° East 487 560 41,000  Level Chicago Center
07:57AM 41.6589 -84.6753 95° East 483 556 41,000  Level Chicago Center
07:58AM 41.5869 -84.4869 117° Southeast 464 534 41,000  Level Cleveland Center
07:59AM 41.5347 -84.3619 119° Southeast 477 549 41,000  Level Chicago Center
08:00AM 41.4725 -84.2025 117° Southeast 486 559 41,000  Level Chicago Center
08:01AM 41.3917 -84.0186 120° Southeast 481 554 41,000  Level Chicago Center
08:02AM 41.3286 -83.8617 118° Southeast 480 552 41,000  Level Chicago Center
08:03AM 41.2625 -83.7061 119° Southeast 483 556 41,000  Level Chicago Center
08:04AM 41.1900 -83.5356 119° Southeast 482 555 41,000  Level Cleveland Center
08:05AM 41.1253 -83.3811 119° Southeast 482 555 41,000 -60 Level Cleveland Center
08:06AM 41.0722 -83.2411 117° Southeast 476 548 40,900  Descending Cleveland Center
08:07AM 40.9967 -83.0758 121° Southeast 476 548 41,000  Climbing Cleveland Center
08:08AM 40.9311 -82.9247 120° Southeast 476 548 41,000  Level Cleveland Center
08:09AM 40.8350 -82.6897 118° Southeast 471 542 41,000  Level Indianapolis Center
08:10AM 40.7692 -82.5397 120° Southeast 471 542 41,000  Level Indianapolis Center
08:11AM 40.7039 -82.3908 120° Southeast 469 540 41,000 -60 Level Indianapolis Center
08:12AM 40.6381 -82.2406 120° Southeast 473 544 40,900  Descending Indianapolis Center
08:13AM 40.5731 -82.0903 120° Southeast 471 542 41,000  Climbing Indianapolis Center
08:14AM 40.5069 -81.9400 120° Southeast 472 543 41,000  Level Indianapolis Center
08:15AM 40.4397 -81.7906 121° Southeast 472 543 41,000  Level Indianapolis Center
08:16AM 40.3733 -81.6422 120° Southeast 470 541 41,000  Level Indianapolis Center
08:17AM 40.2958 -81.4675 120° Southeast 472 543 41,000  Level Indianapolis Center
08:19AM 40.2292 -81.3200 121° Southeast 470 541 41,000  Level Indianapolis Center
08:20AM 40.1628 -81.1714 120° Southeast 470 541 41,000 -360 Level Indianapolis Center
08:21AM 40.0967 -81.0261 121° Southeast 463 533 40,300 -900 Descending Indianapolis Center
08:22AM 40.0333 -80.8786 119° Southeast 461 531 39,300 -720 Descending Cleveland Center
08:23AM 39.9669 -80.7375 122° Southeast 461 531 39,000 -180 Descending Cleveland Center
08:24AM 39.9025 -80.5939 120° Southeast 461 531 39,000  Level Cleveland Center
08:25AM 39.8336 -80.4478 122° Southeast 461 531 39,000  Level Cleveland Center
08:26AM 39.7686 -80.3050 121° Southeast 461 531 39,000 -180 Level Cleveland Center
08:27AM 39.7017 -80.1594 121° Southeast 461 531 38,700 -1,440 Descending Cleveland Center
08:28AM 39.6322 -80.0169 122° Southeast 466 536 36,200 -2,700 Descending Cleveland Center
08:29AM 39.5667 -79.8747 121° Southeast 466 536 33,300 -2,880 Descending Cleveland Center
08:30AM 39.5222 -79.6542 105° East 413 475 29,100 -2,520 Descending Washington Center
08:31AM 39.4906 -79.4800 103° East 445 512 27,000 -1,080 Descending Washington Center
08:32AM 39.4639 -79.3308 103° East 445 512 27,000 -540 Level Washington Center
08:33AM 39.4389 -79.1925 103° East 440 506 26,000 -1,440 Descending Washington Center
08:34AM 39.4119 -79.0489 104° East 425 489 24,200 -2,160 Descending Washington Center
08:35AM 39.3867 -78.9081 103° East 409 471 21,700 -2,520 Descending Washington Center
08:36AM 39.3633 -78.7753 103° East 387 445 19,200 -1,860 Descending Washington Center
08:37AM 39.3375 -78.6453 104° East 380 437 18,000 -1,920 Descending Washington Center
08:38AM 39.3156 -78.5183 103° East 370 426 15,400 -2,520 Descending Washington Center
08:39AM 39.2914 -78.3914 104° East 370 426 13,000 -2,100 Descending Washington Center
08:40AM 39.2439 -78.2875 121° Southeast 351 404 11,200 -1,080 Descending Washington Center
08:41AM 39.1978 -78.1975 123° Southeast 329 379 10,900 -960 Descending Washington Center
08:42AM 39.1517 -78.1131 125° Southeast 309 356 9,300 -1,680 Descending Washington Center
08:43AM 39.1075 -78.0283 124° Southeast 294 338 7,600 -1,200 Descending Washington Center
08:44AM 39.0633 -77.9469 125° Southeast 289 333 7,000 -300 Descending Washington Center
08:45AM 39.0172 -77.8544 123° Southeast 289 333 7,000  Level Washington Center
08:46AM 38.9750 -77.7758 125° Southeast 284 327 7,000 -420 Level Washington Center
08:48AM 38.9333 -77.6167 109° East 280 322 6,000 -420 Descending Potomac TRACON
08:49AM 38.8667 -77.5833 159° South 252 290 6,000 -480 Level Potomac TRACON
08:50AM 38.8000 -77.5667 169° South 221 254 5,200 -1,080 Descending Potomac TRACON
08:51AM 38.7667 -77.5167 131° Southeast 224 258 4,000 -1,140 Descending Potomac TRACON
08:52AM 38.8000 -77.4667 49° Northeast 178 205 3,100 -900 Descending Potomac TRACON
08:53AM 38.8333 -77.4667 360° North 168 193 2,300 -780 Descending Potomac TRACON
08:54AM 38.8833 -77.4667 360° North 132 152 1,600 -660 Descending Potomac TRACON
08:55AM 38.9167 -77.4667 360° North 117 135 1,000 -600 Descending Potomac TRACON
08:57AM 38.9333 -77.4500 165° South  Level FlightAware Approximate
09:04AM 38.9474 -77.4599 165° South  Level Estimated